Time;durP1;ratioP1;P1;durP2;ratioP2;P2;SDS_P1;SDS_P2;PMS_P1;PMS_P2;Temp;Humidity;BMP_temperature;BMP_pressure;BME280_temperature;BME280_humidity;BME280_pressure;Samples;Min_cycle;Max_cycle;Signal;HPM_P1;HPM_P2
2022/07/03 00:00:10;;;;;;;3.40;3.20;;;;;;;;;;4956969;28;20414;-88
2022/07/03 00:02:36;;;;;;;4.47;2.63;;;;;;;;;;4956682;28;20449;-89
2022/07/03 00:05:02;;;;;;;2.27;2.27;;;;;;;;;;4969344;28;20781;-88
2022/07/03 00:07:28;;;;;;;2.80;2.67;;;;;;;;;;4963588;28;20504;-88
2022/07/03 00:09:54;;;;;;;2.60;2.50;;;;;;;;;;4958093;28;20414;-90
2022/07/03 00:12:20;;;;;;;3.13;3.00;;;;;;;;;;4965700;28;20955;-89
2022/07/03 00:14:46;;;;;;;3.27;3.00;;;;;;;;;;4968003;28;20782;-88
2022/07/03 00:17:12;;;;;;;2.60;2.43;;;;;;;;;;4969314;28;20466;-88
2022/07/03 00:19:38;;;;;;;3.43;2.80;;;;;;;;;;4967973;28;20450;-89
2022/07/03 00:22:05;;;;;;;2.77;2.77;;;;;;;;;;4960636;28;20984;-88
2022/07/03 00:24:44;;;;;;;2.80;2.80;;;;;;;;;;4952664;28;20514;-88
2022/07/03 00:27:11;;;;;;;2.83;2.63;;;;;;;;;;4976813;28;20453;-89
2022/07/03 00:29:39;;;;;;;2.43;2.43;;;;;;;;;;4961007;28;20438;-89
2022/07/03 00:32:07;;;;;;;3.13;2.87;;;;;;;;;;4968547;28;21236;-89
2022/07/03 00:34:33;;;;;;;3.27;3.10;;;;;;;;;;4952804;28;20504;-88
2022/07/03 00:37:01;;;;;;;2.97;2.77;;;;;;;;;;4964661;28;20997;-89
2022/07/03 00:39:27;;;;;;;5.10;3.70;;;;;;;;;;4953224;28;20485;-89
2022/07/03 00:42:01;;;;;;;2.67;2.47;;;;;;;;;;4949991;28;20443;-89
2022/07/03 00:44:28;;;;;;;2.80;2.60;;;;;;;;;;4952743;28;20873;-89
2022/07/03 00:46:55;;;;;;;2.90;2.80;;;;;;;;;;4962706;28;20434;-89
2022/07/03 00:49:23;;;;;;;1.80;1.80;;;;;;;;;;4953792;28;20453;-90
2022/07/03 00:51:51;;;;;;;3.30;3.20;;;;;;;;;;4966947;28;20466;-89
2022/07/03 00:54:20;;;;;;;2.50;2.40;;;;;;;;;;4953469;28;20454;-89
2022/07/03 00:56:49;;;;;;;2.33;2.23;;;;;;;;;;4960800;28;20438;-90
2022/07/03 00:59:15;;;;;;;2.70;2.60;;;;;;;;;;4953906;28;20441;-89
2022/07/03 01:01:41;;;;;;;2.53;2.43;;;;;;;;;;4953794;28;20439;-88
2022/07/03 01:04:07;;;;;;;2.70;2.60;;;;;;;;;;4952443;28;20444;-89
2022/07/03 01:06:36;;;;;;;2.87;2.67;;;;;;;;;;4950094;29;20406;-89
2022/07/03 01:09:03;;;;;;;3.30;2.87;;;;;;;;;;4977686;28;20452;-88
2022/07/03 01:11:59;;;;;;;2.60;2.50;;;;;;;;;;4956667;28;20831;-87
2022/07/03 01:14:31;;;;;;;2.80;2.60;;;;;;;;;;4954664;28;20468;-89
2022/07/03 01:17:10;;;;;;;3.57;3.47;;;;;;;;;;4953477;29;21000;-89
2022/07/03 01:19:43;;;;;;;2.90;2.90;;;;;;;;;;4968331;28;20437;-88
2022/07/03 01:22:28;;;;;;;3.10;2.97;;;;;;;;;;4951833;28;20517;-89
2022/07/03 01:25:04;;;;;;;2.70;2.53;;;;;;;;;;4966217;28;20554;-89
2022/07/03 01:27:35;;;;;;;2.70;2.60;;;;;;;;;;4956312;28;20543;-88
2022/07/03 01:30:11;;;;;;;2.70;2.60;;;;;;;;;;4972827;28;20441;-89
2022/07/03 01:32:44;;;;;;;3.87;3.17;;;;;;;;;;4962625;28;20436;-89
2022/07/03 01:35:14;;;;;;;2.70;2.60;;;;;;;;;;4949875;28;20573;-89
2022/07/03 01:37:40;;;;;;;2.70;2.57;;;;;;;;;;4971861;28;20513;-89
2022/07/03 01:40:07;;;;;;;3.40;3.20;;;;;;;;;;4968645;28;20446;-89
2022/07/03 01:42:33;;;;;;;6.67;3.00;;;;;;;;;;4984148;28;20433;-89
2022/07/03 01:45:00;;;;;;;3.47;3.27;;;;;;;;;;4961385;28;20445;-88
2022/07/03 01:47:26;;;;;;;3.67;3.40;;;;;;;;;;4994655;28;20445;-89
2022/07/03 01:49:52;;;;;;;4.00;3.80;;;;;;;;;;4952598;28;20967;-89
2022/07/03 01:52:19;;;;;;;3.00;3.00;;;;;;;;;;4990739;28;20456;-88
2022/07/03 01:54:46;;;;;;;3.17;3.00;;;;;;;;;;4986620;28;20485;-88
2022/07/03 01:57:12;;;;;;;3.10;3.10;;;;;;;;;;4985830;28;20479;-88
2022/07/03 01:59:38;;;;;;;3.37;3.17;;;;;;;;;;4950148;28;20438;-88
2022/07/03 02:02:25;;;;;;;3.07;2.87;;;;;;;;;;4975820;28;20433;-88
2022/07/03 02:04:51;;;;;;;4.53;4.00;;;;;;;;;;4957662;28;20441;-89
2022/07/03 02:07:24;;;;;;;2.90;2.90;;;;;;;;;;4988260;28;20459;-89
2022/07/03 02:09:55;;;;;;;2.93;2.83;;;;;;;;;;4952500;28;20445;-88
2022/07/03 02:12:26;;;;;;;3.23;2.70;;;;;;;;;;4960305;28;20433;-89
2022/07/03 02:14:57;;;;;;;2.83;2.83;;;;;;;;;;4969566;28;20453;-89
2022/07/03 02:17:24;;;;;;;3.17;3.07;;;;;;;;;;4974573;28;20473;-88
2022/07/03 02:20:04;;;;;;;3.37;3.37;;;;;;;;;;4959024;28;20532;-88
2022/07/03 02:22:34;;;;;;;3.43;3.33;;;;;;;;;;4979925;28;20445;-87
2022/07/03 02:25:03;;;;;;;3.60;3.30;;;;;;;;;;4962275;28;20462;-89
2022/07/03 02:27:32;;;;;;;3.27;3.07;;;;;;;;;;4973959;28;20438;-89
2022/07/03 02:30:07;;;;;;;2.80;2.70;;;;;;;;;;4974636;28;20429;-89
2022/07/03 02:32:36;;;;;;;4.77;3.70;;;;;;;;;;4993528;28;20428;-88
2022/07/03 02:35:05;;;;;;;3.40;3.20;;;;;;;;;;4955021;28;20446;-90
2022/07/03 02:37:33;;;;;;;3.37;3.17;;;;;;;;;;4972137;28;20547;-89
2022/07/03 02:40:10;;;;;;;3.03;2.90;;;;;;;;;;4955364;28;20837;-89
2022/07/03 02:42:46;;;;;;;3.37;3.27;;;;;;;;;;4978951;28;20429;-89
2022/07/03 02:45:12;;;;;;;3.60;3.50;;;;;;;;;;4967382;28;20971;-89
2022/07/03 02:47:51;;;;;;;2.87;2.70;;;;;;;;;;4966725;28;20422;-89
2022/07/03 02:50:21;;;;;;;3.20;3.10;;;;;;;;;;4979076;28;20519;-89
2022/07/03 02:52:52;;;;;;;3.63;3.53;;;;;;;;;;4945789;28;20447;-89
2022/07/03 02:55:37;;;;;;;5.20;4.70;;;;;;;;;;4967490;28;20528;-89
2022/07/03 02:58:22;;;;;;;2.70;2.70;;;;;;;;;;4959633;28;20496;-89
2022/07/03 03:00:57;;;;;;;3.10;3.00;;;;;;;;;;4953035;28;20409;-89
2022/07/03 03:03:26;;;;;;;3.13;3.13;;;;;;;;;;4956741;28;20822;-89
2022/07/03 03:05:55;;;;;;;3.47;3.47;;;;;;;;;;4953686;28;20450;-90
2022/07/03 03:08:26;;;;;;;3.60;3.50;;;;;;;;;;4964720;28;20985;-89
2022/07/03 03:10:54;;;;;;;3.23;3.23;;;;;;;;;;4972403;28;20478;-90
2022/07/03 03:13:21;;;;;;;3.20;3.13;;;;;;;;;;4953695;28;20429;-89
2022/07/03 03:15:58;;;;;;;3.20;3.10;;;;;;;;;;4946734;28;20434;-89
2022/07/03 03:18:27;;;;;;;3.37;3.13;;;;;;;;;;4953828;28;20505;-88
2022/07/03 03:20:56;;;;;;;4.13;3.67;;;;;;;;;;4959327;28;20433;-89
2022/07/03 03:23:25;;;;;;;3.83;3.53;;;;;;;;;;4962051;28;21144;-88
2022/07/03 03:25:54;;;;;;;3.33;3.23;;;;;;;;;;4946656;28;20927;-89
2022/07/03 03:28:20;;;;;;;4.40;4.00;;;;;;;;;;4973859;28;20425;-90
2022/07/03 03:30:47;;;;;;;3.60;3.40;;;;;;;;;;4980137;28;20408;-89
2022/07/03 03:33:15;;;;;;;3.80;3.50;;;;;;;;;;4966306;28;20437;-93
2022/07/03 03:35:41;;;;;;;3.97;3.67;;;;;;;;;;4981104;28;20449;-92
2022/07/03 03:38:07;;;;;;;3.73;3.73;;;;;;;;;;5017978;28;20535;-90
2022/07/03 03:40:34;;;;;;;3.97;3.77;;;;;;;;;;5003824;28;20452;-92
2022/07/03 03:43:01;;;;;;;3.93;3.63;;;;;;;;;;5020281;28;20487;-91
2022/07/03 03:45:34;;;;;;;3.77;3.57;;;;;;;;;;5003397;28;20440;-91
2022/07/03 03:48:01;;;;;;;3.97;3.87;;;;;;;;;;5000796;28;20444;-91
2022/07/03 03:50:29;;;;;;;4.30;4.20;;;;;;;;;;5001095;28;20415;-91
2022/07/03 03:58:10;;;;;;;3.80;3.60;;;;;;;;;;5765790;23;20480;-91
2022/07/03 04:00:36;;;;;;;3.30;3.20;;;;;;;;;;4984304;28;20449;-92
2022/07/03 04:03:09;;;;;;;4.03;3.73;;;;;;;;;;5000181;28;20420;-93
2022/07/03 04:05:36;;;;;;;4.37;4.17;;;;;;;;;;4984280;28;20424;-91
2022/07/03 04:08:04;;;;;;;4.83;4.57;;;;;;;;;;4983016;28;20596;-93
2022/07/03 04:10:30;;;;;;;4.20;4.20;;;;;;;;;;4979813;28;20445;-92
2022/07/03 04:12:58;;;;;;;3.53;3.43;;;;;;;;;;4965217;28;20419;-92
2022/07/03 04:15:27;;;;;;;4.63;3.80;;;;;;;;;;5000190;28;20413;-91
2022/07/03 04:17:56;;;;;;;3.30;3.20;;;;;;;;;;4963442;29;20477;-93
2022/07/03 04:20:24;;;;;;;3.73;3.50;;;;;;;;;;4982422;28;21076;-92
2022/07/03 04:22:50;;;;;;;4.53;4.33;;;;;;;;;;4978044;28;20438;-91
2022/07/03 04:25:19;;;;;;;3.70;3.60;;;;;;;;;;4980249;28;20433;-92
2022/07/03 04:27:48;;;;;;;3.67;3.37;;;;;;;;;;4998672;28;20426;-91
2022/07/03 04:30:14;;;;;;;3.40;3.20;;;;;;;;;;4982495;28;20450;-91
2022/07/03 04:32:40;;;;;;;3.40;3.40;;;;;;;;;;4979639;28;20493;-91
2022/07/03 04:35:12;;;;;;;3.50;3.40;;;;;;;;;;4999054;28;20493;-91
2022/07/03 04:37:45;;;;;;;4.17;3.97;;;;;;;;;;4962481;28;20536;-91
2022/07/03 04:40:12;;;;;;;4.07;3.87;;;;;;;;;;4959254;29;20463;-92
2022/07/03 04:42:39;;;;;;;3.50;2.73;;;;;;;;;;4997431;28;20421;-92
2022/07/03 04:45:11;;;;;;;4.13;4.03;;;;;;;;;;4998040;28;20448;-93
2022/07/03 04:47:37;;;;;;;3.50;3.30;;;;;;;;;;4963221;29;20426;-92
2022/07/03 04:50:03;;;;;;;3.63;3.50;;;;;;;;;;4964356;28;20442;-90
2022/07/03 04:52:41;;;;;;;3.83;3.73;;;;;;;;;;4956667;28;20455;-91
2022/07/03 04:55:19;;;;;;;4.10;4.00;;;;;;;;;;4938156;29;20447;-92
2022/07/03 04:57:48;;;;;;;4.20;3.80;;;;;;;;;;4915578;29;20986;-89
2022/07/03 05:00:14;;;;;;;3.97;3.77;;;;;;;;;;4925608;29;20479;-89
2022/07/03 05:02:44;;;;;;;9.27;4.50;;;;;;;;;;4937636;29;20442;-91
2022/07/03 05:05:16;;;;;;;3.77;3.67;;;;;;;;;;4951151;29;20601;-90
2022/07/03 05:07:42;;;;;;;3.23;3.10;;;;;;;;;;4934907;29;20442;-90
2022/07/03 05:10:08;;;;;;;3.17;3.17;;;;;;;;;;4903933;29;20444;-90
2022/07/03 05:12:37;;;;;;;3.40;3.30;;;;;;;;;;4934195;29;20463;-91
2022/07/03 05:15:04;;;;;;;6.97;3.67;;;;;;;;;;4936491;29;20702;-88
2022/07/03 05:17:30;;;;;;;3.40;3.20;;;;;;;;;;4924916;29;20463;-90
2022/07/03 05:22:43;;;;;;;3.47;3.20;;;;;;;;;;4937888;29;20569;-90
2022/07/03 05:25:09;;;;;;;3.00;2.90;;;;;;;;;;4914610;29;20424;-91
2022/07/03 05:27:53;;;;;;;2.87;2.77;;;;;;;;;;4921935;29;21025;-91
2022/07/03 05:30:20;;;;;;;3.10;2.90;;;;;;;;;;4926162;29;20438;-91
2022/07/03 05:33:02;;;;;;;3.07;2.83;;;;;;;;;;4954134;29;20438;-91
2022/07/03 05:35:48;;;;;;;4.73;2.60;;;;;;;;;;4936543;29;20431;-92
2022/07/03 05:39:31;;;;;;;2.87;2.87;;;;;;;;;;4916956;29;20807;-91
2022/07/03 05:41:05;;;;;;;2.87;2.60;;;;;;;;;;4954035;28;20434;-90
2022/07/03 05:43:37;;;;;;;2.90;2.57;;;;;;;;;;4951080;28;20482;-89
2022/07/03 05:46:12;;;;;;;6.07;3.20;;;;;;;;;;4955613;28;21007;-91
2022/07/03 05:48:38;;;;;;;2.93;2.83;;;;;;;;;;4936368;28;20439;-90
2022/07/03 05:51:04;;;;;;;3.40;3.20;;;;;;;;;;4956250;28;20489;-91
2022/07/03 05:53:30;;;;;;;3.10;2.83;;;;;;;;;;4961789;28;20457;-91
2022/07/03 05:56:04;;;;;;;3.87;2.93;;;;;;;;;;4968626;28;20422;-90
2022/07/03 05:59:01;;;;;;;3.00;2.90;;;;;;;;;;4947573;29;20487;-90
2022/07/03 06:01:40;;;;;;;4.20;3.90;;;;;;;;;;4928429;29;20416;-91
2022/07/03 06:04:12;;;;;;;3.90;3.80;;;;;;;;;;4921883;29;20420;-92
2022/07/03 06:06:38;;;;;;;5.03;3.53;;;;;;;;;;4938397;29;20439;-92
2022/07/03 06:09:10;;;;;;;4.13;3.83;;;;;;;;;;4953812;28;20447;-91
2022/07/03 06:11:57;;;;;;;3.67;3.50;;;;;;;;;;4955462;29;20434;-91
2022/07/03 06:14:23;;;;;;;4.30;4.10;;;;;;;;;;4925054;29;20457;-91
2022/07/03 06:17:19;;;;;;;3.80;3.70;;;;;;;;;;4942428;29;20439;-93
2022/07/03 06:20:31;;;;;;;4.10;4.00;;;;;;;;;;4946379;29;20465;-91
2022/07/03 06:23:06;;;;;;;4.47;4.27;;;;;;;;;;4903277;29;20439;-91
2022/07/03 06:25:35;;;;;;;3.93;3.67;;;;;;;;;;4934111;29;20475;-91
2022/07/03 06:28:04;;;;;;;4.30;4.10;;;;;;;;;;4928193;29;20438;-91
2022/07/03 06:30:30;;;;;;;5.10;3.93;;;;;;;;;;4936106;29;20546;-91
2022/07/03 06:33:11;;;;;;;3.87;3.67;;;;;;;;;;4935947;29;20427;-92
2022/07/03 06:35:37;;;;;;;3.80;3.77;;;;;;;;;;4939991;29;20407;-92
2022/07/03 06:38:04;;;;;;;3.87;3.77;;;;;;;;;;4942737;29;21043;-90
2022/07/03 06:40:30;;;;;;;3.90;3.80;;;;;;;;;;4919890;29;20435;-91
2022/07/03 06:43:08;;;;;;;3.90;3.70;;;;;;;;;;4931858;29;20448;-92
2022/07/03 06:45:52;;;;;;;;;;;;;;;;;;;;;
2022/07/03 06:48:31;;;;;;;4.17;3.87;;;;;;;;;;4919052;29;20526;-91
2022/07/03 06:51:00;;;;;;;4.30;4.03;;;;;;;;;;4898306;29;20436;-93
2022/07/03 06:53:47;;;;;;;3.80;3.70;;;;;;;;;;4923774;29;20534;-90
2022/07/03 06:56:13;;;;;;;6.30;3.90;;;;;;;;;;4902724;29;20450;-91
2022/07/03 06:59:01;;;;;;;4.40;4.10;;;;;;;;;;4918998;29;20485;-91
2022/07/03 07:01:27;;;;;;;6.07;3.93;;;;;;;;;;4912759;29;20463;-92
2022/07/03 07:04:02;;;;;;;3.97;3.77;;;;;;;;;;4935286;29;20439;-92
2022/07/03 07:09:27;;;;;;;3.73;3.63;;;;;;;;;;4897650;29;20463;-90
2022/07/03 07:11:53;;;;;;;4.33;4.20;;;;;;;;;;4951205;29;20434;-89
2022/07/03 07:14:28;;;;;;;4.60;4.20;;;;;;;;;;4902476;29;20528;-90
2022/07/03 07:16:57;;;;;;;4.70;4.50;;;;;;;;;;4900895;29;20964;-92
2022/07/03 07:19:26;;;;;;;5.00;4.63;;;;;;;;;;4922576;29;20420;-93
2022/07/03 07:24:39;;;;;;;4.73;4.30;;;;;;;;;;4929321;29;20434;-89
2022/07/03 07:30:19;;;;;;;4.10;3.90;;;;;;;;;;4943391;29;20382;-93
2022/07/03 07:32:48;;;;;;;4.27;4.07;;;;;;;;;;4920576;29;20427;-92
2022/07/03 07:35:22;;;;;;;5.10;4.83;;;;;;;;;;4938197;29;20539;-91
2022/07/03 07:38:08;;;;;;;3.80;3.50;;;;;;;;;;4924279;29;20466;-93
2022/07/03 07:40:49;;;;;;;3.60;3.40;;;;;;;;;;4944688;29;20821;-93
2022/07/03 07:43:18;;;;;;;5.13;4.27;;;;;;;;;;4922483;29;20953;-93
2022/07/03 07:45:44;;;;;;;4.40;4.20;;;;;;;;;;4939053;29;20494;-89
2022/07/03 07:48:10;;;;;;;4.00;3.70;;;;;;;;;;4921343;29;20535;-92
2022/07/03 07:53:44;;;;;;;4.17;3.87;;;;;;;;;;5154787;23;20491;-90
2022/07/03 07:56:12;;;;;;;4.43;4.23;;;;;;;;;;4981446;28;20444;-93
2022/07/03 07:58:38;;;;;;;4.23;3.93;;;;;;;;;;5002208;28;20489;-90
2022/07/03 08:06:37;;;;;;;3.70;3.60;;;;;;;;;;4983829;28;20529;-91
2022/07/03 08:09:03;;;;;;;4.20;3.97;;;;;;;;;;4997130;28;20490;-89
2022/07/03 08:11:29;;;;;;;4.20;4.00;;;;;;;;;;5000306;28;20433;-91
2022/07/03 08:13:58;;;;;;;4.17;3.97;;;;;;;;;;5003408;28;20506;-89
2022/07/03 08:16:24;;;;;;;4.40;4.10;;;;;;;;;;5005472;28;20988;-91
2022/07/03 08:18:52;;;;;;;4.87;4.47;;;;;;;;;;5025734;28;20459;-92
2022/07/03 08:21:21;;;;;;;5.27;4.43;;;;;;;;;;5027524;28;20415;-90
2022/07/03 08:23:50;;;;;;;4.60;4.40;;;;;;;;;;5007062;28;20486;-92
2022/07/03 08:26:16;;;;;;;4.83;4.37;;;;;;;;;;4992747;28;20424;-92
2022/07/03 08:28:42;;;;;;;4.40;4.10;;;;;;;;;;5006013;28;20428;-92
2022/07/03 08:31:11;;;;;;;4.43;4.10;;;;;;;;;;5002084;28;20429;-90
2022/07/03 08:33:38;;;;;;;4.30;4.20;;;;;;;;;;5026288;28;20435;-90
2022/07/03 08:36:15;;;;;;;3.87;3.57;;;;;;;;;;5020360;28;20838;-92
2022/07/03 08:38:47;;;;;;;3.77;3.63;;;;;;;;;;4986025;28;20488;-92
2022/07/03 08:41:26;;;;;;;3.00;3.00;;;;;;;;;;5019884;28;20424;-92
2022/07/03 08:44:01;;;;;;;3.60;3.50;;;;;;;;;;4988786;28;20441;-93
2022/07/03 08:46:40;;;;;;;;;;;;;;;;;;;;;
2022/07/03 08:49:19;;;;;;;3.17;3.03;;;;;;;;;;5005552;28;20503;-92
2022/07/03 08:54:31;;;;;;;4.07;3.87;;;;;;;;;;5204093;23;20528;-91
2022/07/03 08:56:57;;;;;;;3.90;3.33;;;;;;;;;;5002008;28;20503;-91
2022/07/03 08:59:40;;;;;;;2.90;2.80;;;;;;;;;;4982418;28;20495;-94
2022/07/03 09:02:06;;;;;;;3.20;3.00;;;;;;;;;;4999965;28;20412;-92
2022/07/03 09:04:48;;;;;;;3.40;3.17;;;;;;;;;;4999956;28;20500;-94
2022/07/03 09:07:15;;;;;;;2.80;2.80;;;;;;;;;;5002618;28;20416;-94
2022/07/03 09:09:41;;;;;;;2.80;2.60;;;;;;;;;;5003738;28;20944;-91
2022/07/03 09:12:07;;;;;;;2.40;2.30;;;;;;;;;;5001145;28;20417;-90
2022/07/03 09:14:33;;;;;;;2.90;2.80;;;;;;;;;;4998799;28;20616;-95
2022/07/03 09:16:59;;;;;;;2.27;2.27;;;;;;;;;;4984443;28;20576;-92
2022/07/03 09:19:47;;;;;;;2.20;2.10;;;;;;;;;;5003350;28;20471;-93
2022/07/03 09:22:29;;;;;;;3.37;2.40;;;;;;;;;;5008902;28;20407;-94
2022/07/03 09:25:03;;;;;;;1.70;1.70;;;;;;;;;;4981510;28;20426;-91
2022/07/03 09:27:29;;;;;;;2.50;2.33;;;;;;;;;;4982849;28;20419;-93
2022/07/03 09:30:06;;;;;;;2.67;2.60;;;;;;;;;;4997585;28;21097;-87
2022/07/03 09:32:41;;;;;;;2.43;2.10;;;;;;;;;;4979412;28;20516;-88
2022/07/03 09:35:18;;;;;;;1.90;1.80;;;;;;;;;;4955668;28;20783;-88
2022/07/03 09:37:50;;;;;;;3.00;2.90;;;;;;;;;;4993578;28;20526;-89
2022/07/03 09:40:17;;;;;;;4.13;2.67;;;;;;;;;;4993658;28;20437;-88
2022/07/03 09:43:03;;;;;;;2.43;2.43;;;;;;;;;;4991231;28;20432;-90
2022/07/03 09:45:48;;;;;;;2.40;2.20;;;;;;;;;;4991521;28;20433;-88
2022/07/03 09:48:21;;;;;;;2.80;2.80;;;;;;;;;;4953263;29;20449;-89
2022/07/03 09:50:47;;;;;;;2.30;2.30;;;;;;;;;;4972300;28;20798;-89
2022/07/03 09:53:13;;;;;;;2.70;2.50;;;;;;;;;;4991126;28;20448;-88
2022/07/03 09:55:39;;;;;;;2.93;2.83;;;;;;;;;;4977658;28;20444;-87
2022/07/03 09:58:05;;;;;;;4.30;2.40;;;;;;;;;;4989065;28;20578;-87
2022/07/03 10:00:33;;;;;;;2.23;2.23;;;;;;;;;;4992102;28;20958;-88
2022/07/03 10:03:03;;;;;;;1.73;1.73;;;;;;;;;;4992638;28;20432;-89
2022/07/03 10:05:30;;;;;;;2.17;2.10;;;;;;;;;;4980473;28;20485;-88
2022/07/03 10:08:01;;;;;;;2.23;2.17;;;;;;;;;;4991871;28;20828;-88
2022/07/03 10:10:28;;;;;;;2.30;2.20;;;;;;;;;;4990020;28;20440;-90
2022/07/03 10:12:55;;;;;;;2.30;2.10;;;;;;;;;;4992410;28;20464;-90
2022/07/03 10:15:21;;;;;;;2.70;2.60;;;;;;;;;;4990575;28;20451;-90
2022/07/03 10:17:51;;;;;;;1.90;1.90;;;;;;;;;;4990980;28;20471;-90
2022/07/03 10:20:25;;;;;;;2.53;2.20;;;;;;;;;;4970505;28;20452;-89
2022/07/03 10:22:52;;;;;;;1.65;1.50;;;;;;;;;;4282651;28;10000758;-89
2022/07/03 10:25:18;;;;;;;2.13;2.03;;;;;;;;;;4968433;28;20180;-89
2022/07/03 10:27:50;;;;;;;1.73;1.73;;;;;;;;;;4964618;28;20961;-90
2022/07/03 10:30:17;;;;;;;1.70;1.70;;;;;;;;;;4972053;28;20479;-89
2022/07/03 10:32:47;;;;;;;2.53;2.10;;;;;;;;;;4971375;28;20435;-88
2022/07/03 10:35:15;;;;;;;1.60;1.60;;;;;;;;;;4972027;28;20528;-88
2022/07/03 10:38:07;;;;;;;2.23;2.00;;;;;;;;;;4970170;28;21134;-88
2022/07/03 10:46:17;;;;;;;2.03;1.97;;;;;;;;;;4967017;28;20449;-89
2022/07/03 10:48:56;;;;;;;2.07;1.97;;;;;;;;;;4971550;28;20441;-89
2022/07/03 10:51:22;;;;;;;1.70;1.70;;;;;;;;;;4960523;28;20446;-90
2022/07/03 10:53:51;;;;;;;2.37;2.30;;;;;;;;;;4980508;28;20457;-93
2022/07/03 10:56:17;;;;;;;2.13;2.03;;;;;;;;;;4980501;28;20466;-92
2022/07/03 10:58:56;;;;;;;2.07;1.97;;;;;;;;;;4988773;28;20556;-93
2022/07/03 11:01:36;;;;;;;2.07;1.90;;;;;;;;;;4984901;28;20445;-91
2022/07/03 11:04:04;;;;;;;2.40;2.40;;;;;;;;;;4980513;28;20461;-90
2022/07/03 11:06:53;;;;;;;2.13;2.13;;;;;;;;;;4993510;28;20464;-94
2022/07/03 11:09:42;;;;;;;2.00;2.00;;;;;;;;;;4971774;28;20504;-94
2022/07/03 11:12:08;;;;;;;3.70;2.90;;;;;;;;;;4973864;28;20497;-93
2022/07/03 11:14:50;;;;;;;2.10;2.10;;;;;;;;;;4985571;28;20464;-92
2022/07/03 11:17:25;;;;;;;2.37;2.37;;;;;;;;;;4968149;29;20468;-93
2022/07/03 11:22:48;;;;;;;3.50;3.30;;;;;;;;;;4971901;28;20481;-89
2022/07/03 11:25:17;;;;;;;2.43;2.23;;;;;;;;;;4965527;29;20433;-93
2022/07/03 11:28:23;;;;;;;2.60;2.40;;;;;;;;;;5095423;23;20477;-93
2022/07/03 11:31:09;;;;;;;1.80;1.80;;;;;;;;;;5007778;28;20413;-92
2022/07/03 11:33:56;;;;;;;2.43;2.03;;;;;;;;;;5009106;28;20432;-93
2022/07/03 11:36:32;;;;;;;2.13;1.97;;;;;;;;;;5007640;28;20428;-93
2022/07/03 11:41:50;;;;;;;3.60;1.60;;;;;;;;;;1972816;23;20831;-91
2022/07/03 11:44:45;;;;;;;2.13;2.13;;;;;;;;;;5004526;28;20422;-95
2022/07/03 11:47:14;;;;;;;2.07;1.97;;;;;;;;;;4970256;28;20417;-92
2022/07/03 11:49:49;;;;;;;2.13;2.10;;;;;;;;;;4992471;28;20460;-92
2022/07/03 11:52:17;;;;;;;3.03;2.30;;;;;;;;;;4970801;28;20429;-91
2022/07/03 11:54:55;;;;;;;1.80;1.70;;;;;;;;;;4952989;28;20434;-94
2022/07/03 11:57:24;;;;;;;2.93;2.50;;;;;;;;;;4969392;28;20472;-94
2022/07/03 12:00:04;;;;;;;2.03;2.00;;;;;;;;;;4992269;28;20473;-95
2022/07/03 12:02:30;;;;;;;1.80;1.80;;;;;;;;;;4616501;28;9999714;-92
2022/07/03 12:04:59;;;;;;;1.90;1.80;;;;;;;;;;4955361;28;20182;-89
2022/07/03 12:07:41;;;;;;;2.00;2.00;;;;;;;;;;4962743;28;20436;-92
2022/07/03 12:10:10;;;;;;;2.20;2.10;;;;;;;;;;4956394;28;20986;-91
2022/07/03 12:12:47;;;;;;;2.00;1.90;;;;;;;;;;4975040;28;20436;-91
2022/07/03 12:15:42;;;;;;;3.50;1.67;;;;;;;;;;4959075;28;20425;-91
2022/07/03 12:18:34;;;;;;;1.77;1.70;;;;;;;;;;4923055;29;20495;-93
2022/07/03 12:21:08;;;;;;;1.60;1.50;;;;;;;;;;4927876;29;20499;-92
2022/07/03 12:24:00;;;;;;;2.10;2.00;;;;;;;;;;4985796;28;20432;-92
2022/07/03 12:27:03;;;;;;;2.40;2.20;;;;;;;;;;4949350;29;20430;-95
2022/07/03 12:29:35;;;;;;;2.10;2.10;;;;;;;;;;4931317;29;20988;-92
2022/07/03 12:32:11;;;;;;;4.03;2.40;;;;;;;;;;4965045;28;20509;-92
2022/07/03 12:35:00;;;;;;;1.87;1.87;;;;;;;;;;4948971;29;20457;-93
2022/07/03 12:37:34;;;;;;;2.07;2.07;;;;;;;;;;4942063;29;20525;-90
2022/07/03 12:40:06;;;;;;;1.30;1.30;;;;;;;;;;4985052;28;20459;-93
2022/07/03 12:42:45;;;;;;;3.20;2.90;;;;;;;;;;4991411;28;20646;-95
2022/07/03 12:45:15;;;;;;;1.70;1.70;;;;;;;;;;4982704;28;20517;-93
2022/07/03 12:47:49;;;;;;;2.13;2.03;;;;;;;;;;5024254;28;20427;-91
2022/07/03 12:50:15;;;;;;;2.10;2.10;;;;;;;;;;4988212;28;20477;-88
2022/07/03 12:52:55;;;;;;;2.23;2.23;;;;;;;;;;5026532;28;20503;-90
2022/07/03 12:55:25;;;;;;;3.00;2.90;;;;;;;;;;5029227;23;20485;-88
2022/07/03 13:00:54;;;;;;;2.47;2.10;;;;;;;;;;5172739;23;20525;-90
2022/07/03 13:03:27;;;;;;;1.63;1.63;;;;;;;;;;4990525;28;20429;-93
2022/07/03 13:05:53;;;;;;;3.67;2.73;;;;;;;;;;4977088;28;20445;-94
2022/07/03 13:08:19;;;;;;;2.10;2.10;;;;;;;;;;4990638;28;20441;-93
2022/07/03 13:10:54;;;;;;;1.90;1.90;;;;;;;;;;4993824;28;20417;-93
2022/07/03 13:13:23;;;;;;;2.53;2.40;;;;;;;;;;4961484;29;20406;-92
2022/07/03 13:15:49;;;;;;;2.10;2.00;;;;;;;;;;4990208;28;20441;-91
2022/07/03 13:18:15;;;;;;;1.70;1.60;;;;;;;;;;4991422;28;20472;-92
2022/07/03 13:20:44;;;;;;;3.80;3.53;;;;;;;;;;4987670;28;20440;-92
2022/07/03 13:23:11;;;;;;;1.40;1.40;;;;;;;;;;4984479;28;20409;-90
2022/07/03 13:25:43;;;;;;;4.90;1.87;;;;;;;;;;4989942;28;20436;-92
2022/07/03 13:28:13;;;;;;;1.53;1.50;;;;;;;;;;4965757;28;20468;-91
2022/07/03 13:30:43;;;;;;;1.60;1.50;;;;;;;;;;4992862;28;20432;-93
2022/07/03 13:33:09;;;;;;;1.60;1.60;;;;;;;;;;5044821;23;20497;-91
2022/07/03 13:35:38;;;;;;;1.70;1.70;;;;;;;;;;4989282;28;20429;-93
2022/07/03 13:38:04;;;;;;;3.73;3.50;;;;;;;;;;4988805;28;20485;-94
2022/07/03 13:40:30;;;;;;;1.90;1.83;;;;;;;;;;4986997;28;20444;-94
2022/07/03 13:42:57;;;;;;;1.47;1.47;;;;;;;;;;4989128;28;20422;-92
2022/07/03 13:45:26;;;;;;;1.97;1.97;;;;;;;;;;4991731;28;20433;-94
2022/07/03 13:48:02;;;;;;;2.13;2.13;;;;;;;;;;4988276;28;20492;-96
2022/07/03 13:50:28;;;;;;;1.83;1.83;;;;;;;;;;4988549;28;20417;-92
2022/07/03 13:52:55;;;;;;;6.03;2.70;;;;;;;;;;4986088;28;20508;-95
2022/07/03 13:55:21;;;;;;;2.20;2.10;;;;;;;;;;4978842;28;20844;-94
2022/07/03 13:57:47;;;;;;;1.90;1.80;;;;;;;;;;4966494;28;20492;-93
2022/07/03 14:00:15;;;;;;;2.13;2.03;;;;;;;;;;4964365;28;20914;-93
2022/07/03 14:02:48;;;;;;;2.30;2.17;;;;;;;;;;4973116;28;20449;-90
2022/07/03 14:05:14;;;;;;;1.73;1.70;;;;;;;;;;4981052;28;20536;-93
2022/07/03 14:07:40;;;;;;;2.40;2.20;;;;;;;;;;4979788;28;20430;-93
2022/07/03 14:10:06;;;;;;;1.80;1.80;;;;;;;;;;4967286;28;20485;-93
2022/07/03 14:12:32;;;;;;;1.70;1.60;;;;;;;;;;4964363;28;20449;-93
2022/07/03 14:15:04;;;;;;;2.17;1.60;;;;;;;;;;4961509;28;20505;-94
2022/07/03 14:17:30;;;;;;;1.60;1.57;;;;;;;;;;4965387;28;20454;-92
2022/07/03 14:19:56;;;;;;;2.60;2.50;;;;;;;;;;4982520;28;20446;-91
2022/07/03 14:22:22;;;;;;;1.63;1.63;;;;;;;;;;4972792;28;20523;-92
2022/07/03 14:24:48;;;;;;;3.03;1.50;;;;;;;;;;4966131;28;20414;-88
2022/07/03 14:33:12;;;;;;;2.60;2.40;;;;;;;;;;4948690;28;20813;-93
2022/07/03 14:35:42;;;;;;;1.57;1.57;;;;;;;;;;4967081;28;20446;-93
2022/07/03 14:38:10;;;;;;;1.57;1.57;;;;;;;;;;4960184;28;20532;-92
2022/07/03 14:40:39;;;;;;;2.23;2.13;;;;;;;;;;4967279;28;20430;-92
2022/07/03 14:43:14;;;;;;;3.80;2.00;;;;;;;;;;4987350;28;20450;-91
2022/07/03 14:46:07;;;;;;;1.53;1.53;;;;;;;;;;4962954;28;20423;-92
2022/07/03 14:48:35;;;;;;;1.90;1.80;;;;;;;;;;4949893;29;20423;-89
2022/07/03 14:57:37;;;;;;;1.80;1.80;;;;;;;;;;4958516;29;20457;-94
2022/07/03 15:00:28;;;;;;;1.40;1.40;;;;;;;;;;4918263;29;20440;-92
2022/07/03 15:03:13;;;;;;;1.43;1.43;;;;;;;;;;4959760;29;20434;-93
2022/07/03 15:08:38;;;;;;;1.80;1.80;;;;;;;;;;4949422;28;20426;-92
2022/07/03 15:11:07;;;;;;;2.00;1.90;;;;;;;;;;4962662;29;20449;-91
2022/07/03 15:13:52;;;;;;;3.47;1.80;;;;;;;;;;4983696;28;20426;-93
2022/07/03 15:16:33;;;;;;;2.10;2.00;;;;;;;;;;4963308;29;20434;-91
2022/07/03 15:19:02;;;;;;;1.20;1.20;;;;;;;;;;4971251;28;20543;-91
2022/07/03 15:21:31;;;;;;;1.37;1.37;;;;;;;;;;4964773;28;20472;-90
2022/07/03 15:24:31;;;;;;;1.90;1.87;;;;;;;;;;4976586;28;20426;-90
2022/07/03 15:27:06;;;;;;;1.67;1.67;;;;;;;;;;4942885;29;20422;-92
2022/07/03 15:29:44;;;;;;;1.30;1.30;;;;;;;;;;4962423;28;20847;-92
2022/07/03 15:32:12;;;;;;;2.70;1.43;;;;;;;;;;4962184;28;20469;-90
2022/07/03 15:35:06;;;;;;;1.70;1.70;;;;;;;;;;4974922;28;21027;-91
2022/07/03 15:37:56;;;;;;;2.07;1.97;;;;;;;;;;4970445;29;20604;-90
2022/07/03 15:41:06;;;;;;;;;;;;;;;;;;;;;
2022/07/03 15:44:11;;;;;;;1.70;1.60;;;;;;;;;;4962145;28;20457;-89
2022/07/03 15:47:07;;;;;;;1.10;1.10;;;;;;;;;;4915723;29;20452;-90
2022/07/03 15:49:53;;;;;;;1.50;1.50;;;;;;;;;;4947740;28;20507;-89
2022/07/03 15:52:43;;;;;;;4.00;3.90;;;;;;;;;;4971603;28;20454;-93
2022/07/03 15:58:35;;;;;;;1.13;1.13;;;;;;;;;;4971713;28;20469;-89
2022/07/03 16:03:55;;;;;;;1.20;1.10;;;;;;;;;;4959421;29;20416;-89
2022/07/03 16:06:22;;;;;;;7.60;1.90;;;;;;;;;;4975858;28;21491;-90
2022/07/03 16:08:49;;;;;;;1.20;1.20;;;;;;;;;;4963597;28;20431;-88
2022/07/03 16:11:17;;;;;;;1.43;1.30;;;;;;;;;;4963096;28;20442;-89
2022/07/03 16:13:43;;;;;;;1.23;1.23;;;;;;;;;;4978367;28;20503;-89
2022/07/03 16:16:10;;;;;;;1.10;1.10;;;;;;;;;;4975158;28;20457;-90
2022/07/03 16:18:36;;;;;;;1.90;1.80;;;;;;;;;;4970952;28;20988;-90